Time;durP1;ratioP1;P1;durP2;ratioP2;P2;SDS_P1;SDS_P2;PMS_P1;PMS_P2;Temp;Humidity;BMP_temperature;BMP_pressure;BME280_temperature;BME280_humidity;BME280_pressure;Samples;Min_cycle;Max_cycle;Signal;HPM_P1;HPM_P2
2023/09/09 00:04:08;;;;;;;15.73;8.32;;;;;;;15.67;80.34;98014.94;10418821;28;20052;-53
2023/09/09 00:09:07;;;;;;;;;;;;;;;16.04;80.05;98078.00;10446959;28;20035;-53
2023/09/09 00:14:06;;;;;;;14.40;7.97;;;;;;;16.03;79.79;98076.25;10455739;28;19911;-54
2023/09/09 00:19:05;;;;;;;;;;;;;;;15.99;80.89;98073.69;10455042;28;20047;-54
2023/09/09 00:24:04;;;;;;;12.83;8.47;;;;;;;15.63;81.90;98042.03;10454762;28;20006;-54
2023/09/09 00:29:03;;;;;;;12.40;8.90;;;;;;;15.43;82.33;98047.56;10454263;28;20067;-53
2023/09/09 00:34:02;;;;;;;;;;;;;;;15.48;81.95;98073.63;10455330;28;20024;-53
2023/09/09 00:39:03;;;;;;;15.40;12.23;;;;;;;15.42;81.70;98074.63;10450285;28;19927;-53
2023/09/09 00:44:02;;;;;;;17.85;13.20;;;;;;;14.62;82.15;97948.56;10453922;28;20055;-54
2023/09/09 00:49:03;;;;;;;13.65;10.13;;;;;;;15.30;82.19;98075.66;10453477;28;20137;-53
2023/09/09 00:54:02;;;;;;;11.80;9.20;;;;;;;15.21;82.13;98060.09;10455237;28;20059;-53
2023/09/09 00:59:01;;;;;;;14.27;9.55;;;;;;;15.17;82.35;98063.66;10456366;28;20051;-53
2023/09/09 01:04:00;;;;;;;;;;;;;;;15.10;82.57;98059.41;10455503;28;20032;-53
2023/09/09 01:09:04;;;;;;;15.88;9.30;;;;;;;14.68;82.61;97998.97;10452290;28;19923;-53
2023/09/09 01:14:03;;;;;;;13.18;8.82;;;;;;;14.89;83.36;98045.72;10449714;28;20048;-53
2023/09/09 01:19:03;;;;;;;14.45;9.27;;;;;;;14.87;83.33;98044.03;10449524;28;20139;-53
2023/09/09 01:24:02;;;;;;;13.15;10.70;;;;;;;14.85;82.97;98051.03;10451378;28;20059;-54
2023/09/09 01:29:01;;;;;;;15.75;10.30;;;;;;;14.83;83.62;98051.06;10452128;28;20951;-53
2023/09/09 01:34:00;;;;;;;18.38;11.07;;;;;;;14.74;83.50;98035.50;10451470;28;20056;-53
2023/09/09 01:38:59;;;;;;;;;;;;;;;14.74;83.44;98041.59;10452010;28;20123;-53
2023/09/09 01:43:58;;;;;;;16.95;11.80;;;;;;;14.73;84.22;98045.09;10451732;28;19923;-53
2023/09/09 01:48:57;;;;;;;;;;;;;;;14.65;84.06;98039.06;10450952;28;20027;-54
2023/09/09 01:53:56;;;;;;;17.83;13.63;;;;;;;14.58;84.90;98040.03;10450861;28;19947;-53
2023/09/09 01:58:55;;;;;;;;;;;;;;;14.54;84.84;98041.78;10451247;28;20099;-53
2023/09/09 02:03:54;;;;;;;17.02;13.25;;;;;;;14.41;85.02;98028.03;10450896;28;20358;-53
2023/09/09 02:08:52;;;;;;;;;;;;;;;14.41;85.39;98033.25;10449979;28;20028;-53
2023/09/09 02:13:51;;;;;;;16.70;12.75;;;;;;;14.36;85.49;98044.66;10447866;28;19916;-53
2023/09/09 02:18:50;;;;;;;;;;;;;;;14.29;85.43;98043.84;10447855;28;20042;-53
2023/09/09 02:23:49;;;;;;;15.32;12.63;;;;;;;13.94;85.80;97997.25;10452488;28;19924;-53
2023/09/09 02:28:49;;;;;;;17.58;13.10;;;;;;;14.12;86.37;98037.94;10454922;28;20063;-53
2023/09/09 02:33:48;;;;;;;15.15;12.43;;;;;;;14.12;86.86;98045.75;10457613;28;20059;-54
2023/09/09 02:38:47;;;;;;;;;;;;;;;14.09;86.23;98040.59;10455531;28;20115;-54
2023/09/09 02:43:45;;;;;;;14.93;11.85;;;;;;;14.00;86.58;98046.75;10456958;28;19957;-53
2023/09/09 02:48:44;;;;;;;;;;;;;;;13.97;86.53;98052.00;10456822;28;20119;-53
2023/09/09 02:53:43;;;;;;;18.50;12.85;;;;;;;13.87;86.20;98048.63;10457231;28;19943;-53
2023/09/09 02:58:42;;;;;;;;;;;;;;;13.73;86.60;98046.16;10457893;28;20058;-53
2023/09/09 03:03:41;;;;;;;17.83;12.45;;;;;;;13.56;86.79;98029.78;10457171;28;19912;-53
2023/09/09 03:08:40;;;;;;;;;;;;;;;13.50;87.13;98048.91;10457636;28;20030;-53
2023/09/09 03:13:38;;;;;;;19.75;14.98;;;;;;;13.50;87.65;98050.66;10457192;28;19915;-53
2023/09/09 03:18:37;;;;;;;16.80;14.00;;;;;;;13.25;89.52;98048.22;10456566;28;20123;-53
2023/09/09 03:23:36;;;;;;;18.50;14.20;;;;;;;13.14;89.44;98048.31;10456753;28;20123;-53
2023/09/09 03:28:35;;;;;;;17.48;13.63;;;;;;;13.05;89.51;98055.34;10455890;28;20124;-53
2023/09/09 03:33:34;;;;;;;;;;;;;;;13.05;89.18;98047.50;10456676;28;20028;-53
2023/09/09 03:38:34;;;;;;;15.77;12.93;;;;;;;13.04;89.29;98061.41;10455851;28;19912;-53
2023/09/09 03:43:35;;;;;;;17.25;13.40;;;;;;;12.66;89.24;98010.41;10422214;28;20455;-53
2023/09/09 03:48:34;;;;;;;19.65;13.30;;;;;;;12.99;89.17;98069.25;10455207;28;20111;-53
2023/09/09 03:53:33;;;;;;;17.60;12.93;;;;;;;12.93;89.47;98075.38;10453600;28;20031;-53
2023/09/09 03:58:32;;;;;;;16.30;13.02;;;;;;;12.89;89.24;98062.38;10454758;28;20107;-53
2023/09/09 04:03:33;;;;;;;17.92;12.85;;;;;;;12.88;89.60;98073.63;10455822;28;20055;-54
2023/09/09 04:08:34;;;;;;;22.17;14.75;;;;;;;12.90;89.48;98079.72;10454603;28;20107;-53
2023/09/09 04:13:37;;;;;;;18.80;13.50;;;;;;;12.91;89.15;98082.31;10454715;28;20580;-53
2023/09/09 04:18:36;;;;;;;24.27;15.07;;;;;;;12.95;89.39;98083.16;10454717;28;20176;-54
2023/09/09 04:23:35;;;;;;;23.55;15.27;;;;;;;13.02;89.19;98081.38;10454437;28;20056;-53
2023/09/09 04:28:34;;;;;;;21.13;15.95;;;;;;;12.20;89.26;97927.28;10453834;28;20129;-53
2023/09/09 04:33:33;;;;;;;20.25;15.65;;;;;;;13.20;89.04;98078.66;10453282;28;20115;-53
2023/09/09 04:38:32;;;;;;;22.73;16.48;;;;;;;13.28;88.81;98073.41;10453366;28;20570;-54
2023/09/09 04:43:31;;;;;;;24.33;16.13;;;;;;;13.34;88.46;98078.59;10453073;28;20498;-53
2023/09/09 04:48:30;;;;;;;20.70;15.50;;;;;;;13.26;88.69;98055.19;10452150;28;20020;-53
2023/09/09 04:53:29;;;;;;;22.45;15.48;;;;;;;13.41;88.52;98056.81;10452692;28;20059;-53
2023/09/09 04:58:28;;;;;;;;;;;;;;;13.61;88.50;98071.44;10451886;28;20052;-53
2023/09/09 05:03:27;;;;;;;20.42;15.20;;;;;;;13.75;88.07;98073.09;10453130;28;19919;-54
2023/09/09 05:08:26;;;;;;;24.10;15.88;;;;;;;13.82;87.60;98079.13;10453476;28;20036;-53
2023/09/09 05:13:25;;;;;;;19.40;14.65;;;;;;;13.84;87.81;98061.69;10455441;28;20024;-53
2023/09/09 05:18:24;;;;;;;;;;;;;;;14.05;87.25;98078.03;10414273;28;20068;-53
2023/09/09 05:23:23;;;;;;;20.75;14.20;;;;;;;14.04;87.24;98063.25;10413519;28;19969;-53
2023/09/09 05:28:22;;;;;;;17.17;12.52;;;;;;;14.32;87.12;98080.34;10413309;28;20108;-54
2023/09/09 05:33:21;;;;;;;19.83;12.18;;;;;;;14.43;86.42;98066.31;10411867;28;20526;-54
2023/09/09 05:38:20;;;;;;;;;;;;;;;14.53;86.57;98078.41;10454612;28;20123;-53
2023/09/09 05:43:18;;;;;;;16.67;11.30;;;;;;;14.55;85.65;98058.34;10453922;28;20442;-54
2023/09/09 05:48:17;;;;;;;;;;;;;;;14.80;85.56;98078.09;10454979;28;20099;-54
2023/09/09 05:53:16;;;;;;;13.27;11.23;;;;;;;15.02;84.29;98077.81;10454480;28;20366;-54
2023/09/09 05:58:15;;;;;;;;;;;;;;;15.11;84.54;98082.91;10453989;28;20020;-54
2023/09/09 06:03:14;;;;;;;15.00;11.55;;;;;;;15.28;84.61;98079.19;10454358;28;19951;-54
2023/09/09 06:08:13;;;;;;;;;;;;;;;15.41;84.49;98085.94;10452529;28;20034;-54
2023/09/09 06:13:11;;;;;;;17.05;10.23;;;;;;;15.59;83.75;98087.41;10450075;28;19916;-54
2023/09/09 06:18:10;;;;;;;;;;;;;;;15.76;83.98;98095.84;10451356;28;20051;-54
2023/09/09 06:23:11;;;;;;;15.80;10.98;;;;;;;15.99;83.22;98085.03;10450127;28;20480;-53
2023/09/09 06:28:10;;;;;;;;;;;;;;;16.25;82.53;98094.19;10450526;28;20110;-54
2023/09/09 06:33:09;;;;;;;14.30;9.85;;;;;;;16.34;81.41;98096.63;10450819;28;19916;-54
2023/09/09 06:38:08;;;;;;;;;;;;;;;16.51;81.41;98089.31;10450273;28;20107;-54
2023/09/09 06:43:06;;;;;;;14.47;10.47;;;;;;;16.63;80.64;98071.63;10440120;28;19977;-54
2023/09/09 06:48:05;;;;;;;;;;;;;;;16.90;80.31;98097.28;10449588;28;20099;-54
2023/09/09 06:53:04;;;;;;;17.20;11.80;;;;;;;17.12;79.20;98084.59;10448599;28;19912;-54
2023/09/09 06:58:03;;;;;;;14.80;10.25;;;;;;;17.35;78.67;98084.09;10445830;28;20527;-57
2023/09/09 07:03:03;;;;;;;15.05;10.50;;;;;;;17.46;76.75;98060.22;10443366;28;20486;-54
2023/09/09 07:08:02;;;;;;;17.67;11.18;;;;;;;17.76;75.85;98078.75;10442283;28;20111;-54
2023/09/09 07:13:01;;;;;;;16.17;9.70;;;;;;;17.98;75.47;98084.34;10446496;28;20450;-53
2023/09/09 07:18:03;;;;;;;13.00;8.82;;;;;;;18.28;73.49;98090.56;10450874;28;20135;-54
2023/09/09 07:23:02;;;;;;;16.02;7.97;;;;;;;18.44;72.68;98093.63;10448197;28;20067;-54
2023/09/09 07:28:02;;;;;;;10.50;7.93;;;;;;;18.54;72.11;98079.31;10450298;28;20052;-53
2023/09/09 07:33:01;;;;;;;11.00;5.97;;;;;;;18.94;69.77;98087.88;10443463;28;20601;-54
2023/09/09 07:38:00;;;;;;;12.50;6.05;;;;;;;19.09;66.90;98086.56;10424879;28;20499;-54
2023/09/09 07:43:00;;;;;;;28.40;8.38;;;;;;;19.31;65.72;98089.41;10425110;28;20115;-54
2023/09/09 07:47:58;;;;;;;11.75;6.40;;;;;;;19.32;64.79;98036.75;10445671;28;20120;-54
2023/09/09 07:52:57;;;;;;;9.32;5.75;;;;;;;20.00;63.24;98085.44;10424797;28;20028;-54
2023/09/09 07:57:56;;;;;;;8.43;6.13;;;;;;;20.27;62.01;98077.50;10441312;28;20030;-54
2023/09/09 08:02:55;;;;;;;10.00;5.47;;;;;;;20.58;59.61;98077.28;10437476;28;20641;-54
2023/09/09 08:07:54;;;;;;;8.35;5.13;;;;;;;20.85;58.44;98077.22;10440034;28;20063;-53
2023/09/09 08:12:53;;;;;;;8.45;4.82;;;;;;;20.92;54.92;98074.28;10426790;28;20107;-55
2023/09/09 08:17:52;;;;;;;9.98;4.40;;;;;;;21.20;52.33;98072.38;10427884;28;20629;-55
2023/09/09 08:22:51;;;;;;;9.63;5.35;;;;;;;21.22;53.04;98045.03;10438067;28;20060;-55
2023/09/09 08:27:50;;;;;;;8.40;4.95;;;;;;;21.47;50.96;98055.44;10448993;28;20097;-55
2023/09/09 08:32:49;;;;;;;7.85;4.30;;;;;;;21.78;50.92;98035.72;10449677;28;20055;-55
2023/09/09 08:37:48;;;;;;;7.07;4.20;;;;;;;22.14;49.95;98050.97;10451511;28;20048;-55
2023/09/09 08:43:02;;;;;;;5.75;3.72;;;;;;;22.43;47.67;98043.53;10438392;28;20453;-55
2023/09/09 08:48:06;;;;;;;8.07;4.20;;;;;;;22.49;45.56;98032.69;10451206;28;20048;-55
2023/09/09 08:53:07;;;;;;;8.63;4.50;;;;;;;22.60;44.18;98033.94;10443745;28;20059;-55
2023/09/09 08:58:06;;;;;;;5.05;3.42;;;;;;;22.75;43.88;98034.19;10448110;28;20126;-55
2023/09/09 09:03:05;;;;;;;6.45;3.63;;;;;;;22.99;42.67;98018.97;10447246;28;20110;-55
2023/09/09 09:08:04;;;;;;;8.45;3.78;;;;;;;22.67;43.00;97971.03;10447804;28;20058;-55
2023/09/09 09:13:04;;;;;;;6.65;4.10;;;;;;;23.16;43.09;98024.31;10442226;28;20159;-55
2023/09/09 09:18:03;;;;;;;14.38;3.85;;;;;;;23.40;43.19;98000.25;10444320;28;20451;-55
2023/09/09 09:23:04;;;;;;;7.53;3.58;;;;;;;23.70;41.22;98032.34;10449168;28;20051;-55
2023/09/09 09:28:04;;;;;;;5.10;3.38;;;;;;;23.87;41.89;98023.53;10447197;28;20107;-55
2023/09/09 09:33:03;;;;;;;5.30;3.25;;;;;;;23.84;40.56;98018.38;10447188;28;20103;-55
2023/09/09 09:38:09;;;;;;;5.88;3.47;;;;;;;23.93;40.74;98004.66;10443481;28;20205;-55
2023/09/09 09:43:19;;;;;;;6.40;3.42;;;;;;;24.24;40.57;98003.97;10445055;28;20764;-55
2023/09/09 09:48:26;;;;;;;6.05;4.00;;;;;;;24.38;39.37;97987.31;10424878;28;20068;-53
2023/09/09 09:53:25;;;;;;;3.67;2.50;;;;;;;24.47;35.37;97985.94;10434391;28;20074;-52
2023/09/09 09:58:26;;;;;;;3.72;2.78;;;;;;;24.46;35.03;97985.09;10441034;28;20081;-52
2023/09/09 10:03:35;;;;;;;7.65;2.85;;;;;;;24.70;34.67;97976.75;10443840;28;20078;-55
2023/09/09 10:08:46;;;;;;;4.35;3.13;;;;;;;24.83;33.41;97967.19;10451018;28;20067;-55
2023/09/09 10:14:03;;;;;;;5.93;3.00;;;;;;;24.88;33.34;97962.50;10433874;28;20067;-55
2023/09/09 10:19:03;;;;;;;4.35;3.00;;;;;;;24.97;31.80;97958.47;10431281;28;20080;-55
2023/09/09 10:24:05;;;;;;;4.90;2.63;;;;;;;24.95;30.91;97965.66;10446704;28;20055;-55
2023/09/09 10:29:05;;;;;;;5.85;2.78;;;;;;;24.78;31.26;97909.97;10444750;28;20055;-55
2023/09/09 10:34:06;;;;;;;5.03;2.65;;;;;;;24.78;30.13;97953.31;10417254;28;20048;-55
2023/09/09 10:39:05;;;;;;;6.10;2.67;;;;;;;25.00;30.17;97930.91;10440041;28;20028;-55
2023/09/09 10:44:04;;;;;;;3.78;2.50;;;;;;;25.13;29.40;97941.66;10440933;28;20064;-55
2023/09/09 10:49:04;;;;;;;5.68;2.80;;;;;;;25.18;30.33;97934.31;10451759;28;20036;-55
2023/09/09 10:54:09;;;;;;;3.85;2.60;;;;;;;24.92;29.08;97874.72;10451935;28;20670;-55
2023/09/09 10:59:19;;;;;;;4.32;2.70;;;;;;;25.22;29.04;97893.31;10459779;28;20052;-55
2023/09/09 11:04:23;;;;;;;4.63;2.60;;;;;;;25.60;28.32;97930.97;10456389;28;20063;-55
2023/09/09 11:09:28;;;;;;;7.60;2.67;;;;;;;25.68;27.78;97923.38;10423159;28;20063;-55
2023/09/09 11:14:32;;;;;;;3.70;2.70;;;;;;;25.62;27.12;97906.94;10421745;28;20044;-55
2023/09/09 11:19:31;;;;;;;4.10;2.53;;;;;;;25.91;26.60;97907.84;10421515;28;20071;-53
2023/09/09 11:24:30;;;;;;;3.85;2.40;;;;;;;26.03;25.56;97901.78;10450175;28;20051;-55
2023/09/09 11:29:30;;;;;;;11.75;2.63;;;;;;;25.99;25.45;97902.91;10421430;28;20039;-53
2023/09/09 11:34:33;;;;;;;6.25;1.98;;;;;;;26.10;24.88;97892.47;10448367;28;20055;-53
2023/09/09 11:39:41;;;;;;;6.15;3.10;;;;;;;26.13;25.54;97886.09;10430755;28;20040;-54
2023/09/09 11:44:41;;;;;;;5.50;3.03;;;;;;;26.03;25.97;97883.16;10430015;28;20051;-53
2023/09/09 11:49:45;;;;;;;4.25;2.47;;;;;;;26.46;25.85;97882.31;10419347;28;20056;-54
2023/09/09 11:54:44;;;;;;;4.70;2.67;;;;;;;26.54;25.75;97869.38;10418613;28;20060;-53
2023/09/09 11:59:48;;;;;;;4.65;2.10;;;;;;;26.39;25.05;97865.88;10447524;28;20044;-53
2023/09/09 12:05:04;;;;;;;5.35;2.35;;;;;;;26.65;24.83;97879.31;10418842;28;20056;-54
2023/09/09 12:10:15;;;;;;;3.75;2.20;;;;;;;26.55;23.77;97834.66;10421795;28;20123;-53
2023/09/09 12:15:15;;;;;;;3.45;2.08;;;;;;;26.66;23.99;97865.91;10448383;28;20139;-54
2023/09/09 12:20:14;;;;;;;3.25;2.15;;;;;;;26.59;23.95;97861.94;10441642;28;20048;-54
2023/09/09 12:25:35;;;;;;;5.95;2.65;;;;;;;26.69;23.54;97875.50;10453469;28;20024;-54
2023/09/09 12:30:39;;;;;;;5.38;2.20;;;;;;;26.76;24.37;97867.03;10436383;28;20128;-54
2023/09/09 12:35:43;;;;;;;4.50;2.20;;;;;;;26.99;23.29;97859.38;10447793;28;20063;-54
2023/09/09 12:41:03;;;;;;;4.68;2.05;;;;;;;26.98;22.41;97863.84;10431873;28;20115;-53
2023/09/09 12:46:02;;;;;;;7.45;2.58;;;;;;;26.97;22.91;97856.81;10432799;28;20063;-54
2023/09/09 12:51:01;;;;;;;4.63;1.90;;;;;;;26.83;21.98;97854.19;10410862;28;20031;-54
2023/09/09 12:56:00;;;;;;;3.78;2.30;;;;;;;26.77;22.65;97849.25;10411075;28;20051;-53
2023/09/09 13:00:59;;;;;;;5.30;2.08;;;;;;;26.88;21.09;97841.44;10450914;28;20047;-53
2023/09/09 13:05:58;;;;;;;2.75;2.05;;;;;;;27.01;20.37;97845.97;10450538;28;20107;-54
2023/09/09 13:10:57;;;;;;;3.65;2.28;;;;;;;27.02;20.46;97832.53;10446843;28;20036;-54
2023/09/09 13:15:56;;;;;;;4.10;2.20;;;;;;;26.84;19.84;97823.09;10449559;28;20418;-54
2023/09/09 13:20:55;;;;;;;2.55;1.80;;;;;;;27.08;19.04;97831.28;10412784;28;20074;-54
2023/09/09 13:25:54;;;;;;;5.00;2.20;;;;;;;27.18;18.88;97840.34;10448571;28;20038;-54
2023/09/09 13:30:53;;;;;;;3.67;2.28;;;;;;;26.93;19.16;97830.47;10413148;28;20026;-54
2023/09/09 13:35:52;;;;;;;3.08;2.00;;;;;;;26.90;18.75;97825.34;10447041;28;20550;-54
2023/09/09 13:40:51;;;;;;;3.35;2.00;;;;;;;27.02;19.43;97824.53;10414420;28;20690;-54
2023/09/09 13:45:56;;;;;;;4.35;2.80;;;;;;;27.11;18.58;97833.72;10447423;28;20034;-54
2023/09/09 13:50:54;;;;;;;3.47;1.70;;;;;;;27.23;19.37;97795.59;10410470;28;20120;-54
2023/09/09 13:55:56;;;;;;;5.57;1.98;;;;;;;27.29;18.62;97813.84;10446534;28;20024;-54
2023/09/09 14:00:54;;;;;;;3.13;2.10;;;;;;;27.27;19.58;97805.09;10411599;28;20056;-54
2023/09/09 14:05:56;;;;;;;4.20;2.25;;;;;;;27.15;19.96;97816.59;10445643;28;20034;-54
2023/09/09 14:10:55;;;;;;;2.78;1.80;;;;;;;26.90;19.01;97807.56;10413397;28;20052;-54
2023/09/09 14:15:56;;;;;;;3.20;2.03;;;;;;;27.15;20.09;97808.59;10442671;28;20036;-54
2023/09/09 14:20:55;;;;;;;4.82;2.03;;;;;;;26.93;19.55;97806.50;10412027;28;20475;-55
2023/09/09 14:25:54;;;;;;;3.38;2.10;;;;;;;27.10;20.32;97808.06;10439771;28;20858;-55
2023/09/09 14:30:53;;;;;;;4.22;2.30;;;;;;;27.04;21.65;97809.31;10437318;28;20111;-55
2023/09/09 14:35:52;;;;;;;4.07;2.10;;;;;;;27.08;22.18;97796.66;10444734;28;20115;-54
2023/09/09 14:40:51;;;;;;;6.57;2.50;;;;;;;27.11;21.91;97801.75;10448269;28;20012;-55
2023/09/09 14:45:50;;;;;;;4.13;2.60;;;;;;;27.08;22.85;97794.00;10443768;28;20119;-54
2023/09/09 14:50:50;;;;;;;4.93;2.50;;;;;;;26.98;22.85;97781.28;10445385;28;20032;-55
2023/09/09 14:55:49;;;;;;;5.72;2.40;;;;;;;26.83;21.95;97803.59;10445780;28;20119;-54
2023/09/09 15:00:48;;;;;;;4.70;2.72;;;;;;;26.79;21.93;97805.59;10448247;28;20048;-54
2023/09/09 15:05:47;;;;;;;5.82;2.10;;;;;;;26.57;22.40;97810.63;10442803;28;20118;-54
2023/09/09 15:10:46;;;;;;;6.38;2.38;;;;;;;26.41;23.17;97810.75;10448812;28;20028;-54
2023/09/09 15:15:45;;;;;;;5.18;2.40;;;;;;;26.22;23.01;97807.56;10449418;28;20130;-55
2023/09/09 15:20:44;;;;;;;4.45;2.47;;;;;;;26.24;23.28;97818.97;10444229;28;20107;-55
2023/09/09 15:25:43;;;;;;;6.50;2.78;;;;;;;26.17;23.08;97811.34;10450786;28;20155;-55
2023/09/09 15:30:42;;;;;;;6.28;2.63;;;;;;;26.08;23.90;97811.06;10448542;28;20147;-55
2023/09/09 15:35:41;;;;;;;4.43;2.20;;;;;;;25.84;24.26;97786.91;10451085;28;20039;-55
2023/09/09 15:40:43;;;;;;;5.05;2.50;;;;;;;25.84;23.72;97819.66;10452938;28;20066;-54
2023/09/09 15:45:42;;;;;;;3.38;2.20;;;;;;;25.70;23.07;97820.50;10455011;28;20051;-54
2023/09/09 15:50:41;;;;;;;4.43;2.47;;;;;;;25.51;23.73;97819.88;10438981;28;20059;-54
2023/09/09 15:55:44;;;;;;;4.07;2.20;;;;;;;25.22;24.13;97803.03;10455552;28;20490;-54
2023/09/09 16:00:43;;;;;;;4.20;2.72;;;;;;;25.24;24.17;97831.19;10457085;28;20056;-54
2023/09/09 16:05:42;;;;;;;5.32;2.50;;;;;;;25.06;24.53;97833.16;10456629;28;20107;-54
2023/09/09 16:10:41;;;;;;;7.53;2.63;;;;;;;24.87;24.90;97841.34;10453850;28;20032;-55
2023/09/09 16:15:40;;;;;;;4.03;2.10;;;;;;;24.74;25.18;97837.63;10451782;28;20159;-54
2023/09/09 16:20:39;;;;;;;4.50;2.40;;;;;;;24.53;25.05;97841.53;10451254;28;20591;-54
2023/09/09 16:25:37;;;;;;;3.60;2.53;;;;;;;24.38;25.37;97848.50;10452534;28;20127;-54
2023/09/09 16:30:36;;;;;;;6.75;3.25;;;;;;;24.24;26.20;97851.97;10427983;28;20036;-54
2023/09/09 16:35:36;;;;;;;9.57;3.20;;;;;;;24.08;26.51;97851.06;10449984;28;20072;-54
2023/09/09 16:40:36;;;;;;;7.05;3.00;;;;;;;23.58;27.66;97805.09;10450065;28;20117;-54
2023/09/09 16:45:35;;;;;;;8.88;3.17;;;;;;;23.68;28.46;97861.97;10452099;28;20074;-54
2023/09/09 16:50:36;;;;;;;10.50;3.80;;;;;;;23.40;29.38;97860.72;10449982;28;20127;-54
2023/09/09 16:55:35;;;;;;;9.02;4.22;;;;;;;23.09;30.08;97861.44;10448987;28;20504;-54
2023/09/09 17:00:34;;;;;;;13.88;6.05;;;;;;;22.80;30.81;97874.28;10449931;28;20051;-54
2023/09/09 17:05:33;;;;;;;11.93;5.25;;;;;;;22.35;31.00;97859.66;10450067;28;20119;-54
2023/09/09 17:10:32;;;;;;;9.18;4.68;;;;;;;22.18;31.47;97888.69;10449112;28;20119;-54
2023/09/09 17:15:31;;;;;;;12.27;4.60;;;;;;;21.83;31.93;97871.72;10449035;28;20054;-54
2023/09/09 17:20:30;;;;;;;10.95;5.28;;;;;;;21.65;32.30;97894.53;10449242;28;20104;-54
2023/09/09 17:25:29;;;;;;;10.68;4.53;;;;;;;21.32;32.41;97901.19;10448701;28;20020;-54
2023/09/09 17:30:28;;;;;;;5.93;4.00;;;;;;;21.10;32.82;97914.41;10448669;28;20246;-54
2023/09/09 17:35:28;;;;;;;11.32;4.72;;;;;;;20.79;32.86;97929.72;10446541;28;20052;-54
2023/09/09 17:40:27;;;;;;;14.88;4.78;;;;;;;20.59;33.03;97931.38;10448719;28;20047;-54
2023/09/09 17:45:26;;;;;;;6.32;4.03;;;;;;;20.28;33.38;97924.59;10447859;28;20024;-54
2023/09/09 17:50:25;;;;;;;9.18;4.32;;;;;;;19.97;34.28;97930.13;10447542;28;20548;-54
2023/09/09 17:55:24;;;;;;;8.07;3.50;;;;;;;19.78;34.77;97934.34;10446812;28;20548;-54
2023/09/09 18:00:24;;;;;;;7.32;3.15;;;;;;;19.64;35.18;97955.88;10447655;28;20115;-54
2023/09/09 18:05:23;;;;;;;10.18;4.18;;;;;;;19.44;36.12;97978.44;10447092;28;20056;-54
2023/09/09 18:10:22;;;;;;;7.97;4.18;;;;;;;19.23;37.18;97979.16;10450341;28;20036;-54
2023/09/09 18:15:21;;;;;;;10.35;4.60;;;;;;;19.07;37.41;97977.91;10450801;28;20064;-54
2023/09/09 18:20:20;;;;;;;9.10;4.63;;;;;;;18.94;38.11;97996.69;10451252;28;20516;-54
2023/09/09 18:25:19;;;;;;;9.35;5.15;;;;;;;18.64;38.70;97984.44;10449870;28;20032;-54
2023/09/09 18:30:19;;;;;;;9.48;5.07;;;;;;;18.56;38.88;98003.09;10449273;28;20422;-54
2023/09/09 18:35:19;;;;;;;6.93;3.50;;;;;;;18.42;38.86;98006.09;10449456;28;20052;-54
2023/09/09 18:40:18;;;;;;;7.22;3.42;;;;;;;18.13;39.36;97981.53;10450125;28;20056;-54
2023/09/09 18:45:17;;;;;;;7.57;3.35;;;;;;;18.18;39.74;98020.78;10425855;28;20031;-53
2023/09/09 18:50:17;;;;;;;5.53;3.42;;;;;;;18.08;39.85;98017.56;10450026;28;20499;-54
2023/09/09 18:55:16;;;;;;;5.47;2.88;;;;;;;17.69;40.46;97972.19;10449588;28;20063;-54
2023/09/09 19:00:15;;;;;;;7.13;3.15;;;;;;;17.79;41.10;98020.09;10450815;28;20056;-54
2023/09/09 19:05:14;;;;;;;7.40;3.25;;;;;;;17.72;41.54;98022.81;10423637;28;20056;-54
2023/09/09 19:10:13;;;;;;;8.38;3.92;;;;;;;17.61;41.68;98031.88;10412977;28;20044;-54
2023/09/09 19:15:12;;;;;;;6.07;3.20;;;;;;;17.48;42.31;98036.56;10425448;28;20483;-54
2023/09/09 19:20:12;;;;;;;5.22;2.50;;;;;;;17.01;42.48;97984.34;10411170;28;20349;-54
2023/09/09 19:25:11;;;;;;;4.30;2.75;;;;;;;17.23;43.10;98041.53;10411504;28;20087;-54
2023/09/09 19:30:10;;;;;;;6.75;2.28;;;;;;;17.01;43.18;98034.16;10453810;28;20048;-54
2023/09/09 19:35:09;;;;;;;8.23;3.72;;;;;;;17.04;43.93;98048.94;10452317;28;20062;-54
2023/09/09 19:40:09;;;;;;;8.55;4.60;;;;;;;16.98;45.26;98046.44;10453329;28;20063;-54
2023/09/09 19:45:11;;;;;;;7.57;3.78;;;;;;;16.89;45.53;98037.91;10452723;28;20098;-54
2023/09/09 19:50:11;;;;;;;7.43;3.30;;;;;;;16.77;45.95;98051.25;10452369;28;20118;-54
2023/09/09 19:55:10;;;;;;;8.38;3.05;;;;;;;16.66;45.79;98061.09;10452744;28;20129;-54
2023/09/09 20:00:09;;;;;;;;;;;;;;;16.62;46.03;98060.28;10451071;28;20387;-54
2023/09/09 20:05:08;;;;;;;5.70;3.17;;;;;;;16.49;46.22;98049.19;10452523;28;19955;-54
2023/09/09 20:10:09;;;;;;;7.90;3.00;;;;;;;16.39;46.34;98068.59;10452056;28;20052;-54
2023/09/09 20:15:08;;;;;;;6.97;3.05;;;;;;;16.29;47.21;98065.28;10450221;28;20075;-54
2023/09/09 20:20:13;;;;;;;5.95;3.25;;;;;;;16.08;47.33;98069.16;10451623;28;20942;-54
2023/09/09 20:25:14;;;;;;;7.60;3.90;;;;;;;15.97;48.63;98075.47;10450648;28;20063;-54
2023/09/09 20:30:13;;;;;;;11.85;5.03;;;;;;;15.74;50.69;98052.28;10409317;28;20056;-54
2023/09/09 20:35:12;;;;;;;13.25;4.80;;;;;;;15.81;50.83;98080.09;10409045;28;20060;-54
2023/09/09 20:40:15;;;;;;;;;;;;;;;15.75;52.37;98085.44;10409747;28;20148;-54
2023/09/09 20:45:15;;;;;;;9.93;4.65;;;;;;;15.65;53.07;98079.50;10424791;28;19943;-53
2023/09/09 20:50:19;;;;;;;10.95;4.63;;;;;;;15.40;53.41;98043.25;10449384;28;20167;-53
2023/09/09 20:55:20;;;;;;;8.63;4.53;;;;;;;15.49;52.99;98081.47;10449910;28;20097;-53
2023/09/09 21:00:19;;;;;;;10.57;5.32;;;;;;;15.36;53.21;98072.94;10449378;28;20391;-54
2023/09/09 21:05:20;;;;;;;7.28;3.50;;;;;;;15.21;53.76;98079.28;10449770;28;20062;-54
2023/09/09 21:10:19;;;;;;;8.38;3.65;;;;;;;14.98;54.09;98049.97;10452694;28;20052;-53
2023/09/09 21:15:18;;;;;;;;;;;;;;;15.02;54.09;98078.66;10441100;28;20145;-53
2023/09/09 21:20:17;;;;;;;8.55;4.10;;;;;;;14.67;54.12;98024.25;10450212;28;20046;-53
2023/09/09 21:25:25;;;;;;;;;;;;;;;14.97;54.11;98079.63;10441258;28;20131;-53
2023/09/09 21:30:28;;;;;;;9.65;4.22;;;;;;;14.67;55.36;98047.75;10427753;28;20378;-53
2023/09/09 21:35:27;;;;;;;10.38;4.15;;;;;;;14.54;57.31;98086.19;10442572;28;20055;-53
2023/09/09 21:40:25;;;;;;;;;;;;;;;14.32;57.19;98087.34;10435367;28;20636;-54
2023/09/09 21:45:24;;;;;;;11.73;5.38;;;;;;;14.37;56.80;98094.22;10420819;28;20444;-53
2023/09/09 21:50:24;;;;;;;10.98;4.10;;;;;;;14.24;56.86;98087.41;10437099;28;20112;-53
2023/09/09 21:55:23;;;;;;;4.70;2.95;;;;;;;14.30;56.82;98100.38;10420926;28;20048;-53
2023/09/09 22:00:23;;;;;;;;;;;;;;;14.20;56.89;98104.84;10446293;28;20020;-53
2023/09/09 22:05:21;;;;;;;10.18;5.00;;;;;;;13.78;57.39;98038.28;10450282;28;19950;-53
2023/09/09 22:10:20;;;;;;;7.35;4.28;;;;;;;14.07;58.17;98099.75;10438815;28;20466;-53
2023/09/09 22:15:19;;;;;;;11.02;4.90;;;;;;;13.99;59.41;98111.13;10409708;28;20594;-53
2023/09/09 22:20:19;;;;;;;8.35;3.92;;;;;;;13.92;59.76;98106.00;10419214;28;21622;-53
2023/09/09 22:25:18;;;;;;;10.05;3.33;;;;;;;13.88;60.38;98106.88;10409067;28;20170;-53
2023/09/09 22:30:17;;;;;;;;;;;;;;;13.80;60.30;98112.19;10449826;28;20465;-56
2023/09/09 22:35:26;;;;;;;7.00;3.60;;;;;;;13.48;59.75;98053.28;10409405;28;19954;-54
2023/09/09 22:40:25;;;;;;;7.32;3.10;;;;;;;13.71;60.77;98102.66;10453999;28;20047;-53
2023/09/09 22:45:24;;;;;;;11.48;3.65;;;;;;;13.35;60.66;98052.50;10433624;28;20066;-54
2023/09/09 22:50:23;;;;;;;6.75;3.63;;;;;;;13.56;61.25;98103.66;10416896;28;20025;-53
2023/09/09 22:55:22;;;;;;;7.05;3.72;;;;;;;13.53;61.84;98093.22;10417591;28;20446;-53
2023/09/09 23:00:21;;;;;;;6.30;3.30;;;;;;;13.48;62.46;98084.56;10417013;28;20194;-54
2023/09/09 23:05:20;;;;;;;10.00;3.78;;;;;;;13.38;62.55;98090.72;10415611;28;20059;-53
2023/09/09 23:10:19;;;;;;;8.77;4.28;;;;;;;13.22;62.61;98070.84;10455906;28;20086;-53
2023/09/09 23:15:19;;;;;;;;;;;;;;;13.21;63.74;98087.34;10419132;28;20126;-53
2023/09/09 23:20:18;;;;;;;15.07;7.00;;;;;;;12.81;63.70;98025.06;10417981;28;20418;-53
2023/09/09 23:25:17;;;;;;;;;;;;;;;13.15;64.25;98083.06;10456912;28;20051;-53